CDT,Max TemperatureF,Mean TemperatureF,Min TemperatureF,Max Dew PointF,MeanDew PointF,Min DewpointF,Max Humidity, Mean Humidity, Min Humidity, Max Sea Level PressureIn, Mean Sea Level PressureIn, Min Sea Level PressureIn, Max VisibilityMiles, Mean VisibilityMiles, Min VisibilityMiles, Max Wind SpeedMPH, Mean Wind SpeedMPH, Max Gust SpeedMPH,PrecipitationIn, CloudCover, Events, WindDirDegrees
2012-9-1,91,82,73,74,72,68,100,79,47,30.20,30.13,30.06,10,8,0,6,1,,0.00,3,Fog,227
2012-9-2,90,82,73,77,74,71,94,83,54,30.09,30.03,29.95,10,9,2,13,3,21,0.13,2,Rain,214
2012-9-3,84,78,72,76,73,69,97,90,69,30.02,29.97,29.91,10,8,2,14,5,24,0.38,3,Rain-Thunderstorm,208
2012-9-4,,,,,,,,,,,,,,,,,,,0.00,,,-1
2012-9-5,84,80,73,74,73,72,93,81,67,29.92,29.89,29.86,10,9,1,7,4,,0.00,,,125
2012-9-6,90,82,73,77,73,70,97,82,54,29.98,29.94,29.88,10,8,2,7,3,,0.34,4,Rain,149
2012-9-7,89,80,71,75,72,70,100,87,53,29.98,29.92,29.84,10,7,0,7,0,,0.01,3,Fog-Rain-Hail-Thunderstorm,195
2012-9-8,89,80,70,74,71,67,96,79,53,29.89,29.84,29.78,10,10,7,14,3,18,0.01,3,Rain,321
2012-9-9,81,72,64,66,59,55,93,66,42,30.02,29.96,29.88,10,10,10,14,8,,0.00,0,,343
2012-9-10,84,72,60,64,58,53,90,66,34,30.10,30.06,30.02,10,10,10,9,3,,0.00,0,,359
2012-9-11,84,72,59,63,59,56,93,68,38,30.21,30.15,30.08,10,10,10,13,2,,0.00,1,,89
2012-9-12,84,75,66,64,61,58,81,66,44,30.23,30.17,30.14,10,10,10,13,6,16,0.00,2,,91
2012-9-13,86,76,66,66,62,60,87,67,41,30.22,30.18,30.13,10,10,10,12,5,,0.00,2,,69
2012-9-14,84,74,64,67,64,61,93,71,47,30.18,30.15,30.10,10,10,10,10,4,,0.00,2,,48
2012-9-15,86,76,66,71,67,63,91,72,51,30.16,30.10,30.05,10,10,10,8,3,,0.00,4,,50
2012-9-16,88,79,70,71,69,67,97,78,49,30.07,30.02,29.96,10,10,4,10,2,18,0.32,5,Rain-Thunderstorm,112
2012-9-17,80,74,69,74,71,68,100,92,76,29.99,29.88,29.77,10,9,2,10,4,,0.48,6,Rain,150
2012-9-18,81,74,66,72,68,64,97,86,58,29.97,29.81,29.69,10,9,2,13,7,20,0.32,6,Rain-Thunderstorm,272
2012-9-19,78,69,59,62,56,48,97,72,35,30.07,30.03,29.96,10,10,7,9,4,,0.00,0,Hail,346
2012-9-20,82,68,55,65,57,53,93,72,39,30.09,30.05,30.00,10,10,10,7,1,,0.01,0,,343
2012-9-21,86,72,59,67,61,56,93,73,41,30.06,30.02,29.97,10,10,9,6,1,,0.00,0,Rain,35
2012-9-22,86,74,62,68,64,59,93,73,46,30.09,30.04,30.00,10,10,9,9,2,,0.00,0,,290
2012-9-23,87,72,57,65,57,50,93,63,29,30.16,30.12,30.08,10,10,8,8,3,,0.01,0,,348
2012-9-24,80,68,55,58,51,41,89,61,25,30.21,30.14,30.10,10,10,10,9,4,,0.00,0,Hail,2
2012-9-25,82,66,50,65,54,46,93,70,28,30.17,30.13,30.09,10,10,10,8,1,,0.00,0,,106
2012-9-26,80,66,57,65,59,55,90,81,60,30.17,30.14,30.10,10,10,10,6,1,,0.00,1,,127
2012-9-27,88,80,69,72,68,65,91,68,46,30.14,30.08,30.06,10,10,10,8,3,,0.00,0,,66
2012-9-28,87,76,64,73,67,61,94,79,51,30.10,30.05,29.98,10,10,5,5,1,,0.00,2,,31
2012-9-29,84,76,69,72,69,67,96,84,58,30.00,29.94,29.89,10,9,5,6,1,,0.02,3,Rain,17
2012-9-30,75,72,69,73,70,66,100,94,88,29.89,29.78,29.66,10,6,2,9,3,20,0.64,8,Rain,122